Time;durP1;ratioP1;P1;durP2;ratioP2;P2;SDS_P1;SDS_P2;PMS_P1;PMS_P2;Temp;Humidity;BMP_temperature;BMP_pressure;BME280_temperature;BME280_humidity;BME280_pressure;Samples;Min_cycle;Max_cycle;Signal;HPM_P1;HPM_P2
2021/09/17 00:00:42;;;;;;;2.60;0.82;;;15.60;63.50;;;;;;5044063;28;20064;-72
2021/09/17 00:03:08;;;;;;;3.22;0.75;;;15.60;63.70;;;;;;5044565;28;20104;-73
2021/09/17 00:05:35;;;;;;;6.40;1.42;;;15.60;63.90;;;;;;5045600;28;20028;-72
2021/09/17 00:08:01;;;;;;;3.72;1.38;;;15.60;63.80;;;;;;5045138;28;20025;-72
2021/09/17 00:10:28;;;;;;;4.03;1.13;;;15.60;63.70;;;;;;5044820;28;20159;-72
2021/09/17 00:12:55;;;;;;;1.98;1.25;;;15.50;63.60;;;;;;5045229;28;20066;-72
2021/09/17 00:15:21;;;;;;;2.85;1.00;;;15.60;63.40;;;;;;5041839;28;20031;-72
2021/09/17 00:17:48;;;;;;;6.25;1.45;;;15.60;63.10;;;;;;5043378;28;20407;-72
2021/09/17 00:20:16;;;;;;;4.03;1.20;;;15.50;63.00;;;;;;5043729;28;20480;-73
2021/09/17 00:22:43;;;;;;;3.58;1.30;;;15.50;62.80;;;;;;5044227;28;20032;-72
2021/09/17 00:25:10;;;;;;;4.75;1.83;;;15.50;62.40;;;;;;5047452;28;20013;-73
2021/09/17 00:27:37;;;;;;;2.67;1.10;;;15.50;61.90;;;;;;5043226;28;20484;-73
2021/09/17 00:30:04;;;;;;;2.97;1.38;;;15.50;61.70;;;;;;5048985;28;20036;-72
2021/09/17 00:32:31;;;;;;;4.32;0.90;;;15.50;61.70;;;;;;5041956;28;20508;-73
2021/09/17 00:34:58;;;;;;;1.50;0.50;;;15.50;61.50;;;;;;5046802;28;20017;-72
2021/09/17 00:37:25;;;;;;;8.10;1.83;;;15.50;61.50;;;;;;5042442;28;20029;-72
2021/09/17 00:39:51;;;;;;;5.38;0.60;;;15.50;61.60;;;;;;5048894;28;20444;-72
2021/09/17 00:42:18;;;;;;;1.13;0.52;;;15.50;61.70;;;;;;5045361;28;20013;-75
2021/09/17 00:44:45;;;;;;;2.45;0.50;;;15.50;61.60;;;;;;5045308;28;20020;-72
2021/09/17 00:47:11;;;;;;;2.17;0.75;;;15.50;61.40;;;;;;5047616;28;20021;-72
2021/09/17 00:49:38;;;;;;;3.13;0.90;;;15.50;61.50;;;;;;5043397;28;20028;-72
2021/09/17 00:52:04;;;;;;;0.68;0.22;;;15.50;61.40;;;;;;5046944;28;20025;-72
2021/09/17 00:54:34;;;;;;;2.88;0.68;;;15.50;61.30;;;;;;5044626;28;20146;-72
2021/09/17 00:57:04;;;;;;;4.43;1.15;;;15.50;61.40;;;;;;5047289;28;20079;-72
2021/09/17 00:59:31;;;;;;;1.58;0.70;;;15.50;61.30;;;;;;5047670;28;20048;-72
2021/09/17 01:01:58;;;;;;;2.65;0.65;;;15.50;61.20;;;;;;5049789;28;20116;-72
2021/09/17 01:04:27;;;;;;;2.60;0.75;;;15.40;61.10;;;;;;5047322;28;20048;-72
2021/09/17 01:06:54;;;;;;;1.42;0.50;;;15.50;60.90;;;;;;5044575;28;20032;-72
2021/09/17 01:09:21;;;;;;;1.17;0.68;;;15.50;61.00;;;;;;5049763;28;20738;-72
2021/09/17 01:11:48;;;;;;;3.55;0.65;;;15.50;60.90;;;;;;5045842;28;20017;-72
2021/09/17 01:14:14;;;;;;;1.30;0.50;;;15.50;60.80;;;;;;5047978;28;20847;-72
2021/09/17 01:16:41;;;;;;;2.45;0.38;;;15.50;60.60;;;;;;5048978;28;20489;-72
2021/09/17 01:19:08;;;;;;;1.02;0.60;;;15.50;60.70;;;;;;5045912;28;20017;-72
2021/09/17 01:21:34;;;;;;;0.95;0.60;;;15.50;60.60;;;;;;5042669;28;20029;-72
2021/09/17 01:24:00;;;;;;;1.98;0.50;;;15.50;60.60;;;;;;5046534;28;20009;-72
2021/09/17 01:27:06;;;;;;;1.95;0.32;;;15.50;60.50;;;;;;5049255;28;20024;-72
2021/09/17 01:30:13;;;;;;;2.65;0.40;;;15.50;60.70;;;;;;5047584;28;20113;-73
2021/09/17 01:33:19;;;;;;;2.63;0.60;;;15.50;60.70;;;;;;5048602;28;20027;-72
2021/09/17 01:36:07;;;;;;;0.82;0.60;;;15.50;61.20;;;;;;5046496;28;20075;-73
2021/09/17 01:38:35;;;;;;;0.77;0.55;;;15.50;60.80;;;;;;5047142;28;20083;-73
2021/09/17 01:41:02;;;;;;;6.20;0.73;;;15.50;60.90;;;;;;5048305;28;20555;-73
2021/09/17 01:43:28;;;;;;;7.60;0.90;;;15.50;61.20;;;;;;5049380;28;20021;-72
2021/09/17 01:45:55;;;;;;;4.50;0.70;;;15.50;61.10;;;;;;5046577;28;20108;-73
2021/09/17 01:48:22;;;;;;;1.95;0.75;;;15.50;61.10;;;;;;5050185;28;20025;-72
2021/09/17 01:50:48;;;;;;;2.72;0.90;;;15.50;61.10;;;;;;5044540;28;20530;-72
2021/09/17 01:53:15;;;;;;;1.70;0.82;;;15.50;61.20;;;;;;5049595;28;20021;-72
2021/09/17 01:55:41;;;;;;;1.38;0.68;;;15.50;61.40;;;;;;5046593;28;20024;-72
2021/09/17 01:58:08;;;;;;;1.13;0.70;;;15.50;61.50;;;;;;5050208;28;20045;-72
2021/09/17 02:00:35;;;;;;;4.53;0.90;;;15.50;61.50;;;;;;5049368;28;20408;-72
2021/09/17 02:03:01;;;;;;;1.08;0.40;;;15.50;61.60;;;;;;5048482;28;20032;-74
2021/09/17 02:05:29;;;;;;;1.92;0.57;;;15.50;61.70;;;;;;5049155;28;20021;-73
2021/09/17 02:07:57;;;;;;;3.55;0.82;;;15.40;61.70;;;;;;5044710;28;20028;-72
2021/09/17 02:10:24;;;;;;;1.67;0.60;;;15.50;61.90;;;;;;5048537;28;20025;-72
2021/09/17 02:12:51;;;;;;;2.63;0.60;;;15.40;61.90;;;;;;5050834;28;20084;-72
2021/09/17 02:15:17;;;;;;;6.50;1.17;;;15.40;62.00;;;;;;5044713;28;20009;-72
2021/09/17 02:17:44;;;;;;;3.95;0.90;;;15.40;62.10;;;;;;5048039;28;20563;-72
2021/09/17 02:20:11;;;;;;;1.40;0.77;;;15.40;62.20;;;;;;5045380;28;20059;-72
2021/09/17 02:22:38;;;;;;;2.30;0.77;;;15.40;61.90;;;;;;5049539;28;20024;-72
2021/09/17 02:25:05;;;;;;;1.30;0.63;;;15.40;62.10;;;;;;5046430;28;20108;-72
2021/09/17 02:27:32;;;;;;;0.85;0.50;;;15.40;62.00;;;;;;5046545;28;20019;-72
2021/09/17 02:29:58;;;;;;;1.35;0.60;;;15.40;62.00;;;;;;5045963;28;20455;-72
2021/09/17 02:32:25;;;;;;;3.70;1.05;;;15.40;62.10;;;;;;5046462;28;20021;-72
2021/09/17 02:34:51;;;;;;;5.40;0.85;;;15.40;62.10;;;;;;5050117;28;20013;-73
2021/09/17 02:37:18;;;;;;;3.35;1.70;;;15.40;62.20;;;;;;5045442;28;20033;-72
2021/09/17 02:39:44;;;;;;;2.92;0.77;;;15.40;62.30;;;;;;5046264;28;20025;-73
2021/09/17 02:42:11;;;;;;;2.20;0.73;;;15.30;62.30;;;;;;5046814;28;20036;-72
2021/09/17 02:44:37;;;;;;;2.20;0.70;;;15.30;62.40;;;;;;5047438;28;20024;-72
2021/09/17 02:47:04;;;;;;;4.18;1.35;;;15.30;62.50;;;;;;5046453;28;20017;-72
2021/09/17 02:49:33;;;;;;;1.55;0.60;;;15.30;62.60;;;;;;5043326;28;20029;-72
2021/09/17 02:52:03;;;;;;;2.42;0.80;;;15.30;62.50;;;;;;5043822;28;20033;-72
2021/09/17 02:54:30;;;;;;;3.97;0.80;;;15.20;62.50;;;;;;5042889;28;20051;-72
2021/09/17 02:56:56;;;;;;;1.35;0.65;;;15.20;62.60;;;;;;5040805;28;20477;-72
2021/09/17 02:59:23;;;;;;;3.65;1.13;;;15.20;62.60;;;;;;5042707;28;20045;-72
2021/09/17 03:01:50;;;;;;;2.17;0.70;;;15.10;62.70;;;;;;5042857;28;20079;-72
2021/09/17 03:04:16;;;;;;;4.22;0.95;;;15.10;62.80;;;;;;5039847;28;20025;-72
2021/09/17 03:06:43;;;;;;;3.40;0.77;;;15.10;62.90;;;;;;5041291;28;20021;-72
2021/09/17 03:09:09;;;;;;;2.22;0.57;;;15.10;63.00;;;;;;5047271;28;20028;-72
2021/09/17 03:11:36;;;;;;;1.17;0.55;;;15.10;63.00;;;;;;5043598;28;20044;-72
2021/09/17 03:14:02;;;;;;;2.92;0.70;;;15.10;63.20;;;;;;5046174;28;20099;-72
2021/09/17 03:16:28;;;;;;;1.98;0.63;;;15.10;63.20;;;;;;5046770;28;20013;-72
2021/09/17 03:18:55;;;;;;;2.67;0.80;;;15.10;63.20;;;;;;5045914;28;20025;-72
2021/09/17 03:21:21;;;;;;;2.75;0.80;;;15.10;63.40;;;;;;5045744;28;20013;-72
2021/09/17 03:23:48;;;;;;;4.35;1.00;;;15.10;63.30;;;;;;5044210;28;20021;-72
2021/09/17 03:26:14;;;;;;;2.22;0.52;;;15.20;63.40;;;;;;5046865;28;20053;-72
2021/09/17 03:28:41;;;;;;;4.82;1.65;;;15.20;63.50;;;;;;5048499;28;20029;-72
2021/09/17 03:31:07;;;;;;;2.40;0.70;;;15.20;63.50;;;;;;5045838;28;20666;-72
2021/09/17 03:33:34;;;;;;;1.05;0.90;;;15.20;63.60;;;;;;5046584;28;20041;-72
2021/09/17 03:36:00;;;;;;;2.78;0.70;;;15.20;63.60;;;;;;5045445;28;20128;-73
2021/09/17 03:38:27;;;;;;;6.05;1.02;;;15.20;63.60;;;;;;5041870;28;20037;-72
2021/09/17 03:40:53;;;;;;;3.83;0.70;;;15.20;63.70;;;;;;5043208;28;20017;-72
2021/09/17 03:43:20;;;;;;;9.20;6.25;;;15.20;63.60;;;;;;5041356;28;20009;-72
2021/09/17 03:45:46;;;;;;;29.88;20.73;;;15.10;63.70;;;;;;5047186;28;20025;-72
2021/09/17 03:48:13;;;;;;;13.70;8.55;;;15.20;64.00;;;;;;5046008;28;20018;-72
2021/09/17 03:50:40;;;;;;;5.65;1.98;;;15.20;63.80;;;;;;5043536;28;20045;-72
2021/09/17 03:53:07;;;;;;;3.13;0.82;;;15.20;63.80;;;;;;5043447;28;20013;-72
2021/09/17 03:55:35;;;;;;;3.65;0.82;;;15.20;64.60;;;;;;5041215;28;20029;-72
2021/09/17 03:58:03;;;;;;;9.82;1.13;;;15.20;64.00;;;;;;5047335;28;20419;-72
2021/09/17 04:00:29;;;;;;;3.03;0.65;;;15.10;64.20;;;;;;5045511;28;20053;-78
2021/09/17 04:02:56;;;;;;;2.53;1.60;;;15.10;64.30;;;;;;5046723;28;20036;-73
2021/09/17 04:05:22;;;;;;;7.05;1.05;;;15.20;64.40;;;;;;5045876;28;20492;-73
2021/09/17 04:07:49;;;;;;;5.90;1.63;;;15.10;64.40;;;;;;5044424;28;20021;-77
2021/09/17 04:10:17;;;;;;;37.33;22.13;;;15.10;64.80;;;;;;5042059;28;20040;-72
2021/09/17 04:12:45;;;;;;;7.97;4.68;;;15.10;64.70;;;;;;5044878;28;20056;-70
2021/09/17 04:15:12;;;;;;;3.50;1.42;;;15.10;64.60;;;;;;5047775;28;20021;-80
2021/09/17 04:17:39;;;;;;;3.47;0.82;;;15.10;64.80;;;;;;5042074;28;20083;-70
2021/09/17 04:20:07;;;;;;;3.40;1.10;;;15.10;64.80;;;;;;5046713;28;20032;-73
2021/09/17 04:22:34;;;;;;;5.22;2.45;;;15.10;64.80;;;;;;5048700;28;20379;-74
2021/09/17 04:25:00;;;;;;;5.85;2.90;;;15.10;64.90;;;;;;5043045;28;20029;-72
2021/09/17 04:27:27;;;;;;;4.82;2.28;;;15.10;65.10;;;;;;5043491;28;20019;-72
2021/09/17 04:29:54;;;;;;;33.17;19.80;;;15.10;65.20;;;;;;5044457;28;20056;-71
2021/09/17 04:32:21;;;;;;;59.72;37.95;;;15.10;65.50;;;;;;5045508;28;20032;-71
2021/09/17 04:34:47;;;;;;;9.10;6.03;;;15.00;65.70;;;;;;5044675;28;20221;-71
2021/09/17 04:37:56;;;;;;;7.07;2.08;;;15.10;65.80;;;;;;5046178;28;20033;-71
2021/09/17 04:41:00;;;;;;;8.07;1.73;;;15.10;66.00;;;;;;5047758;28;20021;-71
2021/09/17 04:43:29;;;;;;;6.32;1.05;;;15.00;66.00;;;;;;5039039;28;20036;-70
2021/09/17 04:45:56;;;;;;;7.82;0.98;;;15.00;66.30;;;;;;5043309;28;20476;-71
2021/09/17 04:48:22;;;;;;;6.63;2.47;;;15.00;66.40;;;;;;5042149;28;20465;-68
2021/09/17 04:50:49;;;;;;;12.95;5.05;;;15.00;66.50;;;;;;5045033;28;20036;-73
2021/09/17 04:53:15;;;;;;;4.25;2.20;;;15.00;66.80;;;;;;5039011;28;20122;-70
2021/09/17 04:55:42;;;;;;;5.43;1.88;;;15.00;66.80;;;;;;5041857;28;20488;-72
2021/09/17 04:58:09;;;;;;;7.38;1.40;;;15.00;66.80;;;;;;5043986;28;20026;-72
2021/09/17 05:01:15;;;;;;;6.13;1.30;;;15.00;66.70;;;;;;5041822;28;20108;-71
2021/09/17 05:04:21;;;;;;;4.15;1.00;;;15.00;66.80;;;;;;5044797;28;20163;-71
2021/09/17 05:07:27;;;;;;;4.72;1.00;;;15.00;66.70;;;;;;5045729;28;20331;-71
2021/09/17 05:10:34;;;;;;;10.90;2.22;;;15.00;66.90;;;;;;5042830;28;20029;-72
2021/09/17 05:13:40;;;;;;;6.38;1.50;;;15.00;67.00;;;;;;5032125;28;20060;-72
2021/09/17 05:16:46;;;;;;;4.82;1.80;;;15.00;67.20;;;;;;5037441;28;20481;-72
2021/09/17 05:19:52;;;;;;;6.35;2.00;;;15.00;67.40;;;;;;5036165;28;20559;-72
2021/09/17 05:22:58;;;;;;;3.95;1.58;;;15.00;67.50;;;;;;5037779;28;20535;-72
2021/09/17 05:26:04;;;;;;;7.90;2.28;;;15.00;67.70;;;;;;5037169;28;20029;-72
2021/09/17 05:28:48;;;;;;;5.20;2.38;;;15.00;67.70;;;;;;5040650;28;20354;-72
2021/09/17 05:31:14;;;;;;;7.80;2.92;;;15.00;67.80;;;;;;5037278;28;20061;-72
2021/09/17 05:33:41;;;;;;;6.20;2.63;;;15.00;67.90;;;;;;5039655;28;20013;-72
2021/09/17 05:36:07;;;;;;;6.80;2.33;;;15.00;68.00;;;;;;5033807;28;20017;-72
2021/09/17 05:38:34;;;;;;;8.13;2.50;;;15.00;68.10;;;;;;5038808;28;20021;-72
2021/09/17 05:41:00;;;;;;;4.30;2.08;;;15.00;68.20;;;;;;5039069;28;20056;-72
2021/09/17 05:43:27;;;;;;;8.15;2.25;;;15.00;68.30;;;;;;5044769;28;20063;-71
2021/09/17 05:45:53;;;;;;;7.68;2.70;;;15.10;68.40;;;;;;5049040;28;20074;-71
2021/09/17 05:48:20;;;;;;;8.57;2.03;;;15.10;68.50;;;;;;5048969;28;20467;-72
2021/09/17 05:50:46;;;;;;;5.32;2.35;;;15.10;68.50;;;;;;5045753;28;20120;-71
2021/09/17 05:53:15;;;;;;;8.27;1.85;;;15.10;68.50;;;;;;5048815;28;20018;-71
2021/09/17 05:55:41;;;;;;;7.97;2.08;;;15.10;68.50;;;;;;5048862;28;20452;-71
2021/09/17 05:58:08;;;;;;;7.20;2.85;;;15.20;68.60;;;;;;5055015;28;20392;-72
2021/09/17 06:00:35;;;;;;;7.93;1.92;;;15.20;68.50;;;;;;5046936;28;20140;-71
2021/09/17 06:03:03;;;;;;;5.30;1.85;;;15.20;68.30;;;;;;5047946;28;20418;-71
2021/09/17 06:05:29;;;;;;;9.52;1.90;;;15.20;68.20;;;;;;5050317;28;20318;-71
2021/09/17 06:07:55;;;;;;;7.75;1.98;;;15.30;68.30;;;;;;5042630;28;20384;-72
2021/09/17 06:10:22;;;;;;;9.15;2.25;;;15.30;68.50;;;;;;5044090;28;20029;-71
2021/09/17 06:12:48;;;;;;;8.98;2.35;;;15.30;68.60;;;;;;5041041;28;20032;-71
2021/09/17 06:15:18;;;;;;;6.18;1.83;;;15.40;68.70;;;;;;5048076;28;20021;-72
2021/09/17 06:17:45;;;;;;;9.48;2.33;;;15.40;68.50;;;;;;5047949;28;20097;-71
2021/09/17 06:20:14;;;;;;;6.28;1.88;;;15.40;68.10;;;;;;5045904;28;20022;-71
2021/09/17 06:22:43;;;;;;;12.15;1.80;;;15.40;68.10;;;;;;5044537;28;20021;-71
2021/09/17 06:25:09;;;;;;;4.43;1.67;;;15.50;68.20;;;;;;5045225;28;20354;-71
2021/09/17 06:27:36;;;;;;;11.10;1.75;;;15.60;68.10;;;;;;5044685;28;20511;-71
2021/09/17 06:30:04;;;;;;;6.10;1.40;;;15.60;67.90;;;;;;5047656;28;20045;-71
2021/09/17 06:32:31;;;;;;;6.30;1.88;;;15.60;68.00;;;;;;5045899;28;20021;-71
2021/09/17 06:34:58;;;;;;;5.22;2.20;;;15.70;67.90;;;;;;5043447;28;20013;-71
2021/09/17 06:37:25;;;;;;;6.05;1.77;;;15.70;67.50;;;;;;5047214;28;20024;-71
2021/09/17 06:39:51;;;;;;;13.05;2.05;;;15.80;67.30;;;;;;5043468;28;20013;-72
2021/09/17 06:42:17;;;;;;;6.88;1.48;;;15.80;67.30;;;;;;5050104;28;20015;-71
2021/09/17 06:44:44;;;;;;;7.65;1.20;;;15.80;67.20;;;;;;5043191;28;20029;-71
2021/09/17 06:47:12;;;;;;;6.18;1.60;;;15.90;67.10;;;;;;5049588;28;20102;-72
2021/09/17 06:49:38;;;;;;;4.88;1.33;;;16.00;66.80;;;;;;5049668;28;20028;-71
2021/09/17 06:52:05;;;;;;;5.65;1.92;;;16.00;66.60;;;;;;5049067;28;20009;-72
2021/09/17 06:54:31;;;;;;;5.43;1.05;;;16.10;66.60;;;;;;5044623;28;20091;-71
2021/09/17 06:56:58;;;;;;;4.63;1.10;;;16.10;65.90;;;;;;5049068;28;20017;-71
2021/09/17 06:59:24;;;;;;;3.72;1.30;;;16.20;65.00;;;;;;5043878;28;20040;-71
2021/09/17 07:01:51;;;;;;;8.27;2.35;;;16.20;64.90;;;;;;5042852;28;20542;-71
2021/09/17 07:04:17;;;;;;;5.28;1.42;;;16.30;65.00;;;;;;5051852;28;20021;-71
2021/09/17 07:06:44;;;;;;;4.05;1.35;;;16.40;65.00;;;;;;5041393;28;20067;-71
2021/09/17 07:09:10;;;;;;;6.88;1.52;;;16.40;65.20;;;;;;5043193;28;20423;-70
2021/09/17 07:11:37;;;;;;;4.00;1.25;;;16.50;64.70;;;;;;5045098;28;20037;-71
2021/09/17 07:14:03;;;;;;;6.38;1.20;;;16.60;64.30;;;;;;5041775;28;20097;-71
2021/09/17 07:16:30;;;;;;;2.38;1.00;;;16.60;63.90;;;;;;5046062;28;20009;-71
2021/09/17 07:18:56;;;;;;;7.72;1.25;;;16.70;63.20;;;;;;5044960;28;20096;-71
2021/09/17 07:21:23;;;;;;;5.18;1.23;;;16.80;62.80;;;;;;5038774;28;20120;-71
2021/09/17 07:23:50;;;;;;;5.10;1.00;;;16.80;61.70;;;;;;5043740;28;20021;-71
2021/09/17 07:26:16;;;;;;;2.47;0.65;;;16.90;61.40;;;;;;5046288;28;20009;-71
2021/09/17 07:28:42;;;;;;;1.58;0.88;;;17.00;60.40;;;;;;5048954;28;20096;-71
2021/09/17 07:31:09;;;;;;;1.17;0.80;;;17.10;60.20;;;;;;5040152;28;20032;-71
2021/09/17 07:33:36;;;;;;;2.78;1.27;;;17.10;59.80;;;;;;5046912;28;20100;-71
2021/09/17 07:36:02;;;;;;;1.67;1.10;;;17.20;59.80;;;;;;5047258;28;20029;-71
2021/09/17 07:38:28;;;;;;;4.40;1.30;;;17.30;59.60;;;;;;5044618;28;20478;-71
2021/09/17 07:40:55;;;;;;;2.83;1.20;;;17.30;59.00;;;;;;5044392;28;20384;-71
2021/09/17 07:43:21;;;;;;;4.78;2.25;;;17.40;59.60;;;;;;5050360;28;20021;-71
2021/09/17 07:45:48;;;;;;;3.25;1.58;;;17.50;58.70;;;;;;5042711;28;20024;-71
2021/09/17 07:48:14;;;;;;;8.25;2.08;;;17.60;58.00;;;;;;5045673;28;20048;-71
2021/09/17 07:50:41;;;;;;;4.60;1.00;;;17.60;57.50;;;;;;5048514;28;20033;-71
2021/09/17 07:53:08;;;;;;;7.53;1.65;;;17.70;57.40;;;;;;5041193;28;20021;-71
2021/09/17 07:55:35;;;;;;;6.88;1.40;;;17.80;56.40;;;;;;5045012;28;20025;-71
2021/09/17 07:58:05;;;;;;;7.82;1.45;;;17.80;56.50;;;;;;5046989;28;20017;-71
2021/09/17 08:00:32;;;;;;;4.03;1.85;;;17.90;56.30;;;;;;5045850;28;20171;-71
2021/09/17 08:02:58;;;;;;;5.32;1.80;;;18.00;55.90;;;;;;5044557;28;20066;-71
2021/09/17 08:05:25;;;;;;;4.65;1.83;;;18.10;55.60;;;;;;5045577;28;20469;-71
2021/09/17 08:07:55;;;;;;;4.43;1.45;;;18.20;55.70;;;;;;5044805;28;20033;-71
2021/09/17 08:10:22;;;;;;;4.15;0.68;;;18.30;55.50;;;;;;5039514;28;20069;-71
2021/09/17 08:12:48;;;;;;;3.13;0.80;;;18.40;54.00;;;;;;5041608;28;20029;-71
2021/09/17 08:15:15;;;;;;;4.53;0.80;;;18.50;53.30;;;;;;5041272;28;20024;-71
2021/09/17 08:17:42;;;;;;;2.13;0.95;;;18.50;52.80;;;;;;5043274;28;20029;-71
2021/09/17 08:20:09;;;;;;;8.40;1.13;;;18.60;52.30;;;;;;5046368;28;20031;-71
2021/09/17 08:22:36;;;;;;;11.15;1.45;;;18.70;52.70;;;;;;5044973;28;20464;-71
2021/09/17 08:25:03;;;;;;;3.72;1.02;;;18.80;52.70;;;;;;5043844;28;20021;-71
2021/09/17 08:27:30;;;;;;;4.60;1.05;;;18.90;51.80;;;;;;5043900;28;20045;-71
2021/09/17 08:29:56;;;;;;;6.78;0.93;;;19.00;51.30;;;;;;5042280;28;20119;-71
2021/09/17 08:32:23;;;;;;;4.05;0.98;;;19.00;51.00;;;;;;5043587;28;20064;-71
2021/09/17 08:34:49;;;;;;;4.90;1.30;;;19.10;51.40;;;;;;5048163;28;20013;-71
2021/09/17 08:37:15;;;;;;;6.22;1.58;;;19.20;52.50;;;;;;5044804;28;20029;-70
2021/09/17 08:39:42;;;;;;;7.85;1.50;;;19.30;54.70;;;;;;5039983;28;20026;-71
2021/09/17 08:42:10;;;;;;;5.25;1.23;;;19.30;54.60;;;;;;5047271;28;20119;-71
2021/09/17 08:44:37;;;;;;;3.65;1.30;;;19.40;55.90;;;;;;5045211;28;20036;-71
2021/09/17 08:47:05;;;;;;;2.03;1.02;;;19.50;55.80;;;;;;5047985;28;20087;-71
2021/09/17 08:49:34;;;;;;;7.35;1.50;;;19.60;55.30;;;;;;5044807;28;20033;-71
2021/09/17 08:52:00;;;;;;;2.75;1.00;;;19.70;54.50;;;;;;5046572;28;20021;-71
2021/09/17 08:54:27;;;;;;;11.75;1.98;;;19.70;52.00;;;;;;5042870;28;20104;-70
2021/09/17 08:56:55;;;;;;;4.47;1.52;;;19.80;51.40;;;;;;5045834;28;20017;-71
2021/09/17 08:59:21;;;;;;;8.32;2.08;;;19.90;50.80;;;;;;5045663;28;20131;-71
2021/09/17 09:01:48;;;;;;;7.03;1.42;;;20.00;50.60;;;;;;5041662;28;20057;-71
2021/09/17 09:04:14;;;;;;;5.70;1.17;;;20.10;50.20;;;;;;5045526;28;20388;-71
2021/09/17 09:06:42;;;;;;;3.35;0.77;;;20.20;48.80;;;;;;5039547;28;20427;-71
2021/09/17 09:09:23;;;;;;;2.33;0.93;;;20.30;48.10;;;;;;5049620;28;20515;-71
2021/09/17 09:11:51;;;;;;;1.92;0.47;;;20.40;46.20;;;;;;5049316;28;20024;-71
2021/09/17 09:14:19;;;;;;;2.80;1.10;;;20.40;45.70;;;;;;5049118;28;20037;-71
2021/09/17 09:16:48;;;;;;;5.60;1.10;;;20.50;46.10;;;;;;5049436;28;20017;-71
2021/09/17 09:19:19;;;;;;;7.88;1.40;;;20.60;46.00;;;;;;5049780;28;20025;-71
2021/09/17 09:21:48;;;;;;;3.97;1.20;;;20.70;46.50;;;;;;5047347;28;20067;-70
2021/09/17 09:24:17;;;;;;;6.45;1.15;;;20.80;46.30;;;;;;5049773;28;20043;-71
2021/09/17 09:26:46;;;;;;;4.07;0.82;;;20.90;45.80;;;;;;5046574;28;20018;-70
2021/09/17 09:30:08;;;;;;;1.50;0.70;;;21.10;44.70;;;;;;5049630;28;20495;-71
2021/09/17 09:32:35;;;;;;;0.43;0.28;;;21.20;44.50;;;;;;5047958;28;20115;-70
2021/09/17 09:35:41;;;;;;;1.85;1.00;;;21.40;43.60;;;;;;5049148;28;20014;-70
2021/09/17 09:38:53;;;;;;;3.67;0.70;;;21.50;42.90;;;;;;5048441;28;20100;-70
2021/09/17 09:41:20;;;;;;;1.23;0.50;;;21.70;42.30;;;;;;5043696;28;20429;-70
2021/09/17 09:44:32;;;;;;;3.67;0.50;;;21.80;41.90;;;;;;5047770;28;20084;-70
2021/09/17 09:47:38;;;;;;;0.35;0.25;;;21.90;41.20;;;;;;5048365;28;20039;-71
2021/09/17 09:50:47;;;;;;;2.05;0.20;;;22.10;40.00;;;;;;5048510;28;20029;-70
2021/09/17 09:53:53;;;;;;;0.43;0.20;;;22.30;39.90;;;;;;5045905;28;20044;-70
2021/09/17 09:56:59;;;;;;;5.65;0.50;;;22.40;39.00;;;;;;5044552;28;20440;-70
2021/09/17 10:00:07;;;;;;;0.65;0.30;;;22.60;38.70;;;;;;5043875;28;20053;-71
2021/09/17 10:03:14;;;;;;;0.60;0.50;;;22.60;37.70;;;;;;5045850;28;20036;-70
2021/09/17 10:06:20;;;;;;;0.93;0.40;;;22.60;37.80;;;;;;5049048;28;20079;-70
2021/09/17 10:09:26;;;;;;;5.13;0.50;;;22.70;37.80;;;;;;5046371;28;20031;-71
2021/09/17 10:12:32;;;;;;;3.35;0.30;;;22.80;37.40;;;;;;5041393;28;20136;-70
2021/09/17 10:15:38;;;;;;;0.20;0.20;;;22.90;37.50;;;;;;5043627;28;20026;-70
2021/09/17 10:18:44;;;;;;;0.52;0.40;;;23.00;37.00;;;;;;5046961;28;20024;-71
2021/09/17 10:21:51;;;;;;;1.27;0.30;;;23.20;37.50;;;;;;5046794;28;20031;-71
2021/09/17 10:24:38;;;;;;;;;;;23.30;36.60;;;;;;5048649;28;20021;-71
2021/09/17 10:27:50;;;;;;;1.42;0.40;;;23.40;36.70;;;;;;5043844;28;19908;-71
2021/09/17 10:30:56;;;;;;;0.73;0.30;;;23.70;36.60;;;;;;5044971;28;20029;-71
2021/09/17 10:34:02;;;;;;;0.50;0.20;;;23.80;35.60;;;;;;5049187;28;20054;-70
2021/09/17 10:37:23;;;;;;;4.38;0.38;;;23.90;35.30;;;;;;5048765;28;20036;-70
2021/09/17 10:40:29;;;;;;;0.20;0.20;;;23.90;34.90;;;;;;5043797;28;20025;-70
2021/09/17 10:43:39;;;;;;;0.40;0.30;;;24.00;34.70;;;;;;5047913;28;20100;-70
2021/09/17 10:46:28;;;;;;;0.45;0.20;;;24.00;34.00;;;;;;5046610;28;20034;-71
2021/09/17 10:49:34;;;;;;;0.65;0.32;;;24.00;33.70;;;;;;5045724;28;20025;-70
2021/09/17 10:52:50;;;;;;;0.57;0.20;;;24.10;33.80;;;;;;5057242;28;20108;-71
2021/09/17 10:55:44;;;;;;;2.47;1.17;;;24.20;33.30;;;;;;5029866;28;20123;-71
2021/09/17 10:59:05;;;;;;;5.53;0.80;;;24.30;37.40;;;;;;5044259;28;20558;-71
2021/09/17 11:01:52;;;;;;;3.38;0.98;;;24.40;40.30;;;;;;5042117;28;20068;-70
2021/09/17 11:04:58;;;;;;;2.60;1.15;;;24.30;39.30;;;;;;5046948;28;20017;-71
2021/09/17 11:07:26;;;;;;;1.67;0.85;;;24.30;40.90;;;;;;5042746;28;20070;-71
2021/09/17 11:10:41;;;;;;;4.03;1.10;;;24.40;42.00;;;;;;5045898;28;20553;-69
2021/09/17 11:13:47;;;;;;;4.03;0.82;;;24.30;42.10;;;;;;5046602;28;20533;-69
2021/09/17 11:16:53;;;;;;;2.47;1.10;;;24.30;42.90;;;;;;5042415;28;20017;-69
2021/09/17 11:19:59;;;;;;;3.08;0.93;;;24.30;42.80;;;;;;5043641;28;20739;-69
2021/09/17 11:23:14;;;;;;;4.35;1.40;;;24.30;42.30;;;;;;5043377;28;20044;-70
2021/09/17 11:26:24;;;;;;;3.33;1.10;;;24.40;42.10;;;;;;5045919;28;20416;-70
2021/09/17 11:29:39;;;;;;;2.95;0.77;;;24.40;42.30;;;;;;5045579;28;20021;-69
2021/09/17 11:32:48;;;;;;;3.65;0.82;;;24.40;42.40;;;;;;5046844;28;20025;-70
2021/09/17 11:35:54;;;;;;;5.60;1.52;;;24.40;43.00;;;;;;5045513;28;20028;-69
2021/09/17 11:39:03;;;;;;;1.42;0.75;;;24.40;42.50;;;;;;5043500;28;20382;-69
2021/09/17 11:42:21;;;;;;;3.22;0.70;;;24.50;42.20;;;;;;5046327;28;20538;-69
2021/09/17 11:45:07;;;;;;;7.03;1.63;;;24.60;42.40;;;;;;5045154;28;20032;-70
2021/09/17 11:48:13;;;;;;;4.05;1.38;;;24.70;42.60;;;;;;5044345;28;20017;-69
2021/09/17 11:51:19;;;;;;;6.60;1.55;;;24.70;42.70;;;;;;5042529;28;20044;-70
2021/09/17 11:54:25;;;;;;;6.88;1.30;;;24.90;42.90;;;;;;5036638;28;20021;-70
2021/09/17 11:57:39;;;;;;;3.13;1.00;;;24.90;42.40;;;;;;5045527;28;20396;-69
2021/09/17 12:00:46;;;;;;;4.38;0.90;;;24.90;42.20;;;;;;5046352;28;20555;-70
2021/09/17 12:03:52;;;;;;;7.85;1.17;;;24.80;42.90;;;;;;5045525;28;20029;-69
2021/09/17 12:06:58;;;;;;;3.15;1.05;;;24.90;43.40;;;;;;5047196;28;20013;-70
2021/09/17 12:10:04;;;;;;;4.32;1.15;;;24.90;42.80;;;;;;5047442;28;20639;-70
2021/09/17 12:13:10;;;;;;;7.00;1.23;;;25.00;41.40;;;;;;5039009;28;20045;-70
2021/09/17 12:16:05;;;;;;;;;;;25.00;41.50;;;;;;5040777;28;20028;-70
2021/09/17 12:19:21;;;;;;;5.80;0.90;;;25.00;41.60;;;;;;5045400;28;20286;-70
2021/09/17 12:22:27;;;;;;;4.32;0.82;;;25.10;41.60;;;;;;5046577;28;20357;-70
2021/09/17 12:25:12;;;;;;;5.05;1.25;;;25.20;41.00;;;;;;5046033;28;20013;-70
2021/09/17 12:28:18;;;;;;;1.40;0.68;;;25.20;41.40;;;;;;5043393;28;20035;-70
2021/09/17 12:31:04;;;;;;;;;;;25.30;41.10;;;;;;5039666;28;20373;-70
2021/09/17 12:34:14;;;;;;;1.90;0.90;;;25.30;40.10;;;;;;5041624;28;19988;-71
2021/09/17 12:37:20;;;;;;;2.33;0.95;;;25.30;39.40;;;;;;5041484;28;20025;-70
2021/09/17 12:40:37;;;;;;;2.63;0.73;;;25.40;39.80;;;;;;5040898;28;20112;-70
2021/09/17 12:43:47;;;;;;;0.90;0.50;;;25.40;38.90;;;;;;5036563;28;20031;-70
2021/09/17 12:46:53;;;;;;;6.68;0.80;;;25.40;39.20;;;;;;5047712;28;20029;-69
2021/09/17 12:49:59;;;;;;;3.83;0.90;;;25.50;39.70;;;;;;5052423;28;20039;-70
2021/09/17 12:53:05;;;;;;;2.60;0.73;;;25.50;38.90;;;;;;5044829;28;20014;-70
2021/09/17 12:55:51;;;;;;;;;;;25.60;39.70;;;;;;5049735;28;20021;-70
2021/09/17 12:58:57;;;;;;;2.08;0.57;;;25.60;40.40;;;;;;5049427;28;20371;-71
2021/09/17 13:01:46;;;;;;;;;;;25.60;40.40;;;;;;5045662;28;20044;-70
2021/09/17 13:04:52;;;;;;;2.70;0.73;;;25.50;40.30;;;;;;5050431;28;20509;-71
2021/09/17 13:07:58;;;;;;;6.70;0.93;;;25.50;40.70;;;;;;5044554;28;20029;-71
2021/09/17 13:11:04;;;;;;;5.45;1.23;;;25.50;41.50;;;;;;5046474;28;20082;-71
2021/09/17 13:13:50;;;;;;;;;;;25.40;41.60;;;;;;5046229;28;20024;-71
2021/09/17 13:16:56;;;;;;;1.38;0.80;;;25.40;40.90;;;;;;5049864;28;20332;-70
2021/09/17 13:20:02;;;;;;;3.70;0.82;;;25.30;40.50;;;;;;5048947;28;20014;-70
2021/09/17 13:23:08;;;;;;;4.53;1.02;;;25.20;41.00;;;;;;5047318;28;20014;-69
2021/09/17 13:26:14;;;;;;;1.45;0.85;;;25.30;41.50;;;;;;5045099;28;20017;-70
2021/09/17 13:29:20;;;;;;;1.85;0.75;;;25.20;40.60;;;;;;5048987;28;20021;-70
2021/09/17 13:32:27;;;;;;;5.53;0.70;;;25.20;41.10;;;;;;5046049;28;20132;-70
2021/09/17 13:35:33;;;;;;;3.58;0.80;;;25.20;41.10;;;;;;5045000;28;20108;-70
2021/09/17 13:38:39;;;;;;;1.60;0.75;;;25.20;40.80;;;;;;5044558;28;20065;-70
2021/09/17 13:41:25;;;;;;;;;;;25.20;40.70;;;;;;5041612;28;20052;-70
2021/09/17 13:44:31;;;;;;;4.03;0.90;;;25.20;41.60;;;;;;5049717;28;19999;-70
2021/09/17 13:47:37;;;;;;;3.17;1.35;;;25.10;41.30;;;;;;5049036;28;20063;-70